createdAt,value
2017-10-24T00:00:39.729Z,99018.59
2017-10-24T00:03:08.829Z,99011.55
2017-10-24T00:05:37.650Z,99017.41
2017-10-24T00:08:05.985Z,99013.09
2017-10-24T00:10:34.798Z,99016.61
2017-10-24T00:13:03.107Z,99013.84
2017-10-24T00:15:31.426Z,99015.77
2017-10-24T00:18:00.139Z,99013.69
2017-10-24T00:20:29.233Z,99015.91
2017-10-24T00:22:57.575Z,99018.83
2017-10-24T00:25:25.892Z,99023.27
2017-10-24T00:27:55.031Z,99030.10
2017-10-24T00:30:23.426Z,99024.95
2017-10-24T00:32:51.914Z,99023.83
2017-10-24T00:35:20.234Z,99027.77
2017-10-24T00:37:50.026Z,99027.69
2017-10-24T00:40:18.367Z,99023.95
2017-10-24T00:42:47.468Z,99025.36
2017-10-24T00:45:15.819Z,99023.42
2017-10-24T00:47:44.124Z,99022.72
2017-10-24T00:50:12.473Z,99029.14
2017-10-24T00:52:40.797Z,99030.45
2017-10-24T00:55:09.124Z,99027.50
2017-10-24T00:57:37.473Z,99030.92
2017-10-24T01:00:05.818Z,99027.14
2017-10-24T01:02:34.162Z,99025.48
2017-10-24T01:05:02.485Z,99020.98
2017-10-24T01:07:30.817Z,99027.19
2017-10-24T01:09:59.961Z,99026.37
2017-10-24T01:12:29.494Z,99022.17
2017-10-24T01:14:57.805Z,99021.98
2017-10-24T01:17:26.873Z,99019.83
2017-10-24T01:19:55.202Z,99021.00
2017-10-24T01:22:25.434Z,99028.13
2017-10-24T01:24:53.781Z,99027.14
2017-10-24T01:27:22.868Z,99024.80
2017-10-24T01:29:52.368Z,99029.00
2017-10-24T01:32:21.458Z,99032.33
2017-10-24T01:34:49.807Z,99027.09
2017-10-24T01:37:18.112Z,99021.20
2017-10-24T01:39:46.418Z,99016.33
2017-10-24T01:42:14.793Z,99017.32
2017-10-24T01:44:43.902Z,99013.55
2017-10-24T01:47:12.273Z,99013.06
2017-10-24T01:49:41.365Z,99013.41
2017-10-24T01:52:10.482Z,99003.82
2017-10-24T01:54:39.564Z,99005.89
2017-10-24T01:57:08.331Z,99006.38
2017-10-24T01:59:36.649Z,99012.51
2017-10-24T02:02:04.964Z,99013.77
2017-10-24T02:04:33.295Z,99010.37
2017-10-24T02:07:01.617Z,99012.39
2017-10-24T02:09:29.954Z,99005.84
2017-10-24T02:11:58.273Z,99006.84
2017-10-24T02:14:28.506Z,98999.20
2017-10-24T02:16:56.822Z,99000.70
2017-10-24T02:19:25.931Z,99003.57
2017-10-24T02:21:54.275Z,99003.42
2017-10-24T02:24:22.592Z,99006.85
2017-10-24T02:26:50.928Z,99003.74
2017-10-24T02:29:19.261Z,99000.87
2017-10-24T02:31:47.615Z,99001.84
2017-10-24T02:34:15.950Z,99007.02
2017-10-24T02:36:44.282Z,99008.41
2017-10-24T02:39:12.592Z,98997.34
2017-10-24T02:41:40.941Z,99000.23
2017-10-24T02:44:09.286Z,99000.22
2017-10-24T02:46:37.618Z,99001.59
2017-10-24T02:49:05.963Z,98997.27
2017-10-24T02:51:34.283Z,99010.58
2017-10-24T02:54:02.623Z,99020.02
2017-10-24T02:56:30.947Z,99031.80
2017-10-24T02:58:59.680Z,99030.72
2017-10-24T03:01:28.002Z,99024.16
2017-10-24T03:03:56.306Z,99026.44
2017-10-24T03:06:24.649Z,99028.34
2017-10-24T03:08:52.948Z,99024.16
2017-10-24T03:11:21.293Z,99024.48
2017-10-24T03:13:50.509Z,99015.53
2017-10-24T03:16:18.861Z,99014.00
2017-10-24T03:18:47.948Z,99018.58
2017-10-24T03:21:17.763Z,99012.55
2017-10-24T03:23:46.858Z,99013.13
2017-10-24T03:26:16.373Z,99014.48
2017-10-24T03:28:45.537Z,99019.24
2017-10-24T03:31:13.865Z,99027.05
2017-10-24T03:33:42.210Z,99021.25
2017-10-24T03:36:10.536Z,99026.23
2017-10-24T03:38:38.854Z,99025.48
2017-10-24T03:41:07.309Z,99031.82
2017-10-24T03:43:36.045Z,99033.53
2017-10-24T03:46:04.375Z,99026.64
2017-10-24T03:48:32.709Z,99028.36
2017-10-24T03:51:01.836Z,99031.87
2017-10-24T03:53:30.145Z,99027.17
2017-10-24T03:55:58.484Z,99028.95
2017-10-24T03:58:26.800Z,99033.65
2017-10-24T04:00:55.135Z,99035.80
2017-10-24T04:03:23.451Z,99029.55
2017-10-24T04:05:51.782Z,99023.92
2017-10-24T04:08:20.121Z,99032.01
2017-10-24T04:10:48.474Z,99027.50
2017-10-24T04:13:16.859Z,99028.05
2017-10-24T04:15:45.211Z,99030.59
2017-10-24T04:18:14.341Z,99029.30
2017-10-24T04:20:42.679Z,99028.17
2017-10-24T04:23:14.266Z,99027.45
2017-10-24T04:25:42.655Z,99035.78
2017-10-24T04:28:11.001Z,99037.31
2017-10-24T04:30:40.107Z,99041.39
2017-10-24T04:33:08.456Z,99044.34
2017-10-24T04:35:36.783Z,99042.93
2017-10-24T04:38:05.106Z,99043.31
2017-10-24T04:40:33.445Z,99039.66
2017-10-24T04:43:01.754Z,99032.40
2017-10-24T04:45:30.086Z,99026.88
2017-10-24T04:47:58.408Z,99033.70
2017-10-24T04:50:27.001Z,99026.19
2017-10-24T04:52:55.325Z,99023.69
2017-10-24T04:55:23.642Z,99019.99
2017-10-24T04:57:51.978Z,99018.19
2017-10-24T05:00:20.309Z,99021.12
2017-10-24T05:02:48.672Z,99021.20
2017-10-24T05:05:17.430Z,99025.20
2017-10-24T05:07:45.786Z,99024.73
2017-10-24T05:10:14.881Z,99024.67
2017-10-24T05:12:43.232Z,99025.98
2017-10-24T05:15:11.581Z,99023.14
2017-10-24T05:17:39.900Z,99023.92
2017-10-24T05:20:08.237Z,99031.87
2017-10-24T05:22:38.563Z,99033.53
2017-10-24T05:25:06.909Z,99027.17
2017-10-24T05:27:36.023Z,99019.81
2017-10-24T05:30:04.381Z,99022.34
2017-10-24T05:32:32.696Z,99033.77
2017-10-24T05:35:01.031Z,99036.12
2017-10-24T05:37:29.343Z,99040.41
2017-10-24T05:39:58.465Z,99046.00
2017-10-24T05:42:26.793Z,99037.21
2017-10-24T05:44:55.874Z,99030.25
2017-10-24T05:47:24.217Z,99029.34
2017-10-24T05:49:52.529Z,99034.40
2017-10-24T05:52:20.848Z,99033.64
2017-10-24T05:54:49.176Z,99046.53
2017-10-24T05:57:17.797Z,99052.23
2017-10-24T05:59:46.110Z,99054.50
2017-10-24T06:02:15.194Z,99060.70
2017-10-24T06:04:44.299Z,99062.73
2017-10-24T06:07:12.613Z,99058.77
2017-10-24T06:09:40.944Z,99063.66
2017-10-24T06:12:09.264Z,99065.36
2017-10-24T06:14:37.639Z,99068.25
2017-10-24T06:17:05.958Z,99069.31
2017-10-24T06:19:35.356Z,99068.89
2017-10-24T06:22:03.698Z,99072.55
2017-10-24T06:24:32.027Z,99068.79
2017-10-24T06:27:00.386Z,99071.84
2017-10-24T06:29:28.703Z,99073.58
2017-10-24T06:31:57.035Z,99070.42
2017-10-24T06:34:25.380Z,99068.62
2017-10-24T06:36:53.723Z,99072.47
2017-10-24T06:39:22.050Z,99068.45
2017-10-24T06:41:50.789Z,99066.80
2017-10-24T06:44:19.145Z,99058.66
2017-10-24T06:46:47.480Z,99062.02
2017-10-24T06:49:15.835Z,99069.56
2017-10-24T06:51:44.927Z,99073.88
2017-10-24T06:54:13.267Z,99072.30
2017-10-24T06:56:41.603Z,99068.48
2017-10-24T06:59:10.709Z,99074.36
2017-10-24T07:01:39.027Z,99079.27
2017-10-24T07:04:07.373Z,99083.89
2017-10-24T07:06:35.709Z,99088.63
2017-10-24T07:09:05.155Z,99088.77
2017-10-24T07:11:33.498Z,99094.89
2017-10-24T07:14:01.816Z,99089.39
2017-10-24T07:16:30.155Z,99096.28
2017-10-24T07:18:59.226Z,99100.77
2017-10-24T07:21:27.565Z,99108.83
2017-10-24T07:23:55.870Z,99105.78
2017-10-24T07:26:24.211Z,99119.12
2017-10-24T07:28:52.532Z,99125.40
2017-10-24T07:31:20.866Z,99127.48
2017-10-24T07:33:49.246Z,99135.42
2017-10-24T07:36:17.614Z,99136.38
2017-10-24T07:38:46.947Z,99135.48
2017-10-24T07:41:15.303Z,99143.41
2017-10-24T07:43:43.642Z,99142.73
2017-10-24T07:46:11.983Z,99135.91
2017-10-24T07:48:40.347Z,99139.55
2017-10-24T07:51:08.667Z,99138.17
2017-10-24T07:53:36.992Z,99140.69
2017-10-24T07:56:05.345Z,99131.20
2017-10-24T07:58:33.836Z,99140.86
2017-10-24T08:01:02.185Z,99133.19
2017-10-24T08:03:30.507Z,99127.91
2017-10-24T08:05:58.848Z,99127.50
2017-10-24T08:08:27.163Z,99124.98
2017-10-24T08:10:55.536Z,99121.92
2017-10-24T08:13:23.894Z,99122.53
2017-10-24T08:15:52.210Z,99123.19
2017-10-24T08:18:21.294Z,99123.16
2017-10-24T08:20:49.635Z,99120.95
2017-10-24T08:23:18.034Z,99115.20
2017-10-24T08:25:46.355Z,99120.27
2017-10-24T08:28:14.686Z,99122.62
2017-10-24T08:30:43.032Z,99121.01
2017-10-24T08:33:11.417Z,99126.73
2017-10-24T08:35:39.755Z,99123.96
2017-10-24T08:38:08.086Z,99121.09
2017-10-24T08:40:36.442Z,99124.02
2017-10-24T08:43:04.774Z,99121.86
2017-10-24T08:45:33.118Z,99117.53
2017-10-24T08:48:01.442Z,99117.83
2017-10-24T08:50:30.560Z,99113.86
2017-10-24T08:52:58.881Z,99110.05
2017-10-24T08:55:27.236Z,99107.34
2017-10-24T08:57:55.598Z,99107.53
2017-10-24T09:00:24.678Z,99114.36
2017-10-24T09:02:53.031Z,99116.25
2017-10-24T09:05:21.346Z,99112.02
2017-10-24T09:07:50.452Z,99116.00
2017-10-24T09:14:04.424Z,99110.32
2017-10-24T09:16:51.959Z,99107.50
2017-10-24T09:22:36.355Z,99119.06
2017-10-24T09:25:05.663Z,99110.59
2017-10-24T09:27:34.026Z,99117.63
2017-10-24T09:30:02.352Z,99123.95
2017-10-24T09:32:30.726Z,99124.33
2017-10-24T09:34:59.066Z,99119.44
2017-10-24T09:37:27.392Z,99122.97
2017-10-24T09:39:55.737Z,99119.19
2017-10-24T09:42:24.602Z,99119.88
2017-10-24T09:44:54.208Z,99114.02
2017-10-24T09:47:22.533Z,99110.53
2017-10-24T09:49:57.679Z,99118.49
2017-10-24T09:52:26.000Z,99116.36
2017-10-24T09:54:54.330Z,99119.39
2017-10-24T09:57:22.643Z,99114.44
2017-10-24T09:59:51.756Z,99118.55
2017-10-24T10:02:20.087Z,99114.73
2017-10-24T10:04:49.312Z,99116.37
2017-10-24T10:07:17.632Z,99112.42
2017-10-24T10:09:45.938Z,99114.58
2017-10-24T10:12:14.288Z,99117.45
2017-10-24T10:14:42.610Z,99122.17
2017-10-24T10:17:10.950Z,99117.50
2017-10-24T10:19:39.311Z,99116.72
2017-10-24T10:22:12.646Z,99122.80
2017-10-24T10:24:41.004Z,99120.38
2017-10-24T10:27:09.335Z,99111.95
2017-10-24T10:29:37.690Z,99123.42
2017-10-24T10:32:06.041Z,99121.98
2017-10-24T10:34:34.400Z,99130.64
2017-10-24T10:37:03.477Z,99131.91
2017-10-24T10:39:33.026Z,99133.48
2017-10-24T10:42:01.357Z,99113.77
2017-10-24T10:44:29.721Z,99119.02
2017-10-24T10:46:58.084Z,99114.67
2017-10-24T10:49:26.404Z,99105.54
2017-10-24T10:51:54.753Z,99101.40
2017-10-24T10:54:23.084Z,99092.56
2017-10-24T10:56:51.429Z,99095.28
2017-10-24T10:59:19.761Z,99092.20
2017-10-24T11:01:48.500Z,99093.47
2017-10-24T11:04:16.831Z,99096.35
2017-10-24T11:06:45.185Z,99097.45
2017-10-24T11:09:13.529Z,99092.69
2017-10-24T11:11:41.866Z,99093.34
2017-10-24T11:14:10.214Z,99093.91
2017-10-24T11:16:38.539Z,99086.97
2017-10-24T11:19:07.159Z,99095.06
2017-10-24T11:21:35.524Z,99097.45
2017-10-24T11:24:04.609Z,99091.58
2017-10-24T11:26:32.944Z,99087.58
2017-10-24T11:29:01.269Z,99092.67
2017-10-24T11:31:29.607Z,99092.30
2017-10-24T11:33:57.947Z,99088.31
2017-10-24T11:36:26.291Z,99085.67
2017-10-24T11:38:54.635Z,99079.27
2017-10-24T11:41:22.960Z,99083.58
2017-10-24T11:43:51.318Z,99079.99
2017-10-24T11:46:19.631Z,99084.69
2017-10-24T11:48:47.990Z,99077.92
2017-10-24T11:51:16.324Z,99073.66
2017-10-24T11:53:45.450Z,99062.22
2017-10-24T11:56:13.756Z,99057.44
2017-10-24T11:58:42.093Z,99052.55
2017-10-24T12:01:10.442Z,99051.88
2017-10-24T12:03:38.774Z,99046.23
2017-10-24T12:06:07.131Z,99038.72
2017-10-24T12:08:35.457Z,99040.80
2017-10-24T12:11:03.824Z,99041.32
2017-10-24T12:13:32.182Z,99054.84
2017-10-24T12:16:00.495Z,99059.57
2017-10-24T12:18:28.823Z,99061.67
2017-10-24T12:20:57.159Z,99056.09
2017-10-24T12:23:25.503Z,99052.05
2017-10-24T12:25:53.898Z,99054.03
2017-10-24T12:28:22.232Z,99057.30
2017-10-24T12:30:50.581Z,99061.31
2017-10-24T12:33:18.903Z,99062.22
2017-10-24T12:35:47.568Z,99054.34
2017-10-24T12:38:16.671Z,99054.50
2017-10-24T12:40:44.983Z,99056.50
2017-10-24T12:43:13.310Z,99050.83
2017-10-24T12:45:41.639Z,99048.60
2017-10-24T12:48:09.967Z,99052.47
2017-10-24T12:50:55.163Z,99049.98
2017-10-24T12:53:23.494Z,99049.37
2017-10-24T12:55:51.815Z,99042.30
2017-10-24T13:01:14.690Z,99048.78
2017-10-24T13:03:43.046Z,99051.53
2017-10-24T13:06:11.373Z,99045.86
2017-10-24T13:08:39.718Z,99040.83
2017-10-24T13:11:08.833Z,99044.05
2017-10-24T13:13:37.162Z,99041.70
2017-10-24T13:16:05.530Z,99033.31
2017-10-24T13:18:33.850Z,99033.29
2017-10-24T13:21:02.196Z,99027.50
2017-10-24T13:23:30.527Z,99028.14
2017-10-24T13:25:58.885Z,99022.91
2017-10-24T13:28:27.335Z,99027.53
2017-10-24T13:30:55.666Z,99020.42
2017-10-24T13:33:24.006Z,99023.09
2017-10-24T13:35:52.342Z,99017.87
2017-10-24T13:38:20.678Z,99025.22
2017-10-24T13:40:49.029Z,99020.80
2017-10-24T13:43:17.381Z,99023.75
2017-10-24T13:45:47.354Z,99021.80
2017-10-24T13:48:17.827Z,99022.91
2017-10-24T13:50:46.262Z,99018.91
2017-10-24T13:53:14.604Z,99020.28
2017-10-24T13:55:42.960Z,99024.34
2017-10-24T13:58:11.301Z,99024.61
2017-10-24T14:00:39.698Z,99020.25
2017-10-24T14:03:09.054Z,99026.71
2017-10-24T14:05:42.921Z,99023.38
2017-10-24T14:08:16.648Z,99031.19
2017-10-24T14:10:45.001Z,99024.84
2017-10-24T14:13:14.497Z,99029.20
2017-10-24T14:15:43.899Z,99034.52
2017-10-24T14:18:12.228Z,99031.39
2017-10-24T14:20:41.329Z,99030.78
2017-10-24T14:23:09.675Z,99031.98
2017-10-24T14:25:38.022Z,99032.77
2017-10-24T14:28:06.358Z,99036.02
2017-10-24T14:30:34.671Z,99029.72
2017-10-24T14:33:03.115Z,99034.00
2017-10-24T14:35:32.241Z,99029.23
2017-10-24T14:38:00.586Z,99034.08
2017-10-24T14:40:28.942Z,99031.95
2017-10-24T14:42:57.278Z,99036.12
2017-10-24T14:45:25.637Z,99035.05
2017-10-24T14:47:53.990Z,99038.77
2017-10-24T14:50:22.355Z,99045.46
2017-10-24T14:52:51.998Z,99035.84
2017-10-24T14:55:20.344Z,99036.05
2017-10-24T14:57:49.483Z,99030.78
2017-10-24T15:00:17.822Z,99031.83
2017-10-24T15:20:53.935Z,99033.23
2017-10-24T15:41:30.468Z,99037.39
2017-10-24T16:02:04.484Z,99037.24
2017-10-24T16:22:37.600Z,99049.09
2017-10-24T16:43:12.875Z,99057.69
2017-10-24T17:03:48.149Z,99049.08
2017-10-24T17:24:25.610Z,99063.44
2017-10-24T17:45:00.534Z,99066.06
2017-10-24T18:05:35.806Z,99090.81
2017-10-24T18:26:14.150Z,99072.34
2017-10-24T18:46:55.577Z,99063.47
2017-10-24T19:07:34.526Z,99061.39
2017-10-24T19:28:08.875Z,99052.45
2017-10-24T19:48:44.150Z,99052.01
2017-10-24T20:09:23.419Z,99047.36
2017-10-24T20:30:14.966Z,99046.72
2017-10-24T20:50:49.007Z,99057.78
2017-10-24T21:11:22.748Z,99066.09
2017-10-24T21:31:58.325Z,99052.54
2017-10-24T21:52:39.958Z,99040.20
2017-10-24T22:13:14.091Z,99026.19
2017-10-24T22:33:51.205Z,99021.20
2017-10-24T22:54:28.861Z,99015.03
2017-10-24T23:15:01.884Z,99009.36
2017-10-24T23:35:37.112Z,99008.56
2017-10-24T23:56:14.435Z,98994.09
